createdAt,value
2023-02-25T00:01:44.470Z,54.79
2023-02-25T00:04:15.659Z,55.29
2023-02-25T00:06:42.862Z,55.22
2023-02-25T00:09:11.364Z,54.79
2023-02-25T00:11:38.711Z,55.19
2023-02-25T00:14:05.985Z,54.84
2023-02-25T00:16:33.354Z,54.93
2023-02-25T00:19:00.342Z,54.87
2023-02-25T00:21:29.536Z,55.15
2023-02-25T00:24:00.105Z,55.40
2023-02-25T00:26:31.856Z,55.12
2023-02-25T00:28:58.932Z,55.37
2023-02-25T00:31:26.603Z,55.33
2023-02-25T00:33:53.823Z,55.16
2023-02-25T00:36:25.383Z,55.77
2023-02-25T00:38:57.305Z,55.45
2023-02-25T00:41:29.003Z,56.02
2023-02-25T00:44:01.880Z,56.04
2023-02-25T00:46:31.711Z,55.89
2023-02-25T00:49:00.380Z,55.55
2023-02-25T00:51:32.780Z,55.69
2023-02-25T00:54:00.157Z,55.96
2023-02-25T00:56:27.837Z,55.71
2023-02-25T00:58:55.073Z,55.61
2023-02-25T01:01:33.517Z,55.26
2023-02-25T01:04:01.866Z,55.64
2023-02-25T01:06:32.739Z,55.56
2023-02-25T01:09:00.733Z,54.94
2023-02-25T01:11:33.149Z,55.22
2023-02-25T01:14:07.769Z,54.83
2023-02-25T01:16:37.895Z,54.75
2023-02-25T01:19:21.184Z,54.91
2023-02-25T01:21:52.897Z,55.00
2023-02-25T01:24:31.707Z,54.97
2023-02-25T01:27:02.077Z,55.39
2023-02-25T01:29:39.223Z,54.97
2023-02-25T01:32:14.141Z,55.50
2023-02-25T01:34:42.029Z,56.09
2023-02-25T01:37:09.772Z,56.54
2023-02-25T01:39:38.445Z,57.26
2023-02-25T01:42:15.769Z,57.49
2023-02-25T01:45:29.398Z,57.26
2023-02-25T01:48:11.351Z,58.55
2023-02-25T01:50:52.461Z,60.22
2023-02-25T01:53:35.205Z,61.60
2023-02-25T01:56:03.783Z,61.85
2023-02-25T01:58:34.491Z,63.23
2023-02-25T02:01:01.868Z,63.35
2023-02-25T02:03:35.044Z,63.41
2023-02-25T02:06:18.111Z,63.99
2023-02-25T02:08:47.826Z,63.69
2023-02-25T02:11:15.103Z,64.22
2023-02-25T02:13:54.069Z,63.82
2023-02-25T02:16:48.590Z,63.46
2023-02-25T02:19:40.446Z,63.77
2023-02-25T02:22:42.891Z,63.23
2023-02-25T02:25:46.745Z,62.60
2023-02-25T02:28:44.791Z,62.77
2023-02-25T02:31:33.176Z,62.67
2023-02-25T02:34:09.143Z,62.95
2023-02-25T02:37:13.941Z,62.62
2023-02-25T02:39:45.651Z,62.62
2023-02-25T02:42:53.879Z,62.69
2023-02-25T02:46:12.114Z,62.04
2023-02-25T02:48:58.929Z,62.49
2023-02-25T02:51:36.574Z,62.67
2023-02-25T02:54:08.833Z,63.29
2023-02-25T02:56:41.107Z,62.91
2023-02-25T02:59:19.687Z,62.97
2023-02-25T03:01:52.655Z,63.46
2023-02-25T03:04:28.065Z,63.25
2023-02-25T03:07:05.232Z,62.79
2023-02-25T03:09:43.929Z,63.16
2023-02-25T03:12:10.993Z,63.21
2023-02-25T03:14:38.330Z,62.52
2023-02-25T03:17:28.212Z,62.06
2023-02-25T03:20:24.541Z,61.77
2023-02-25T03:22:59.640Z,61.63
2023-02-25T03:25:47.689Z,62.21
2023-02-25T03:28:31.965Z,62.03
2023-02-25T03:31:34.825Z,62.73
2023-02-25T03:34:12.105Z,62.55
2023-02-25T03:37:04.855Z,63.17
2023-02-25T03:39:42.531Z,62.68
2023-02-25T03:42:17.529Z,62.51
2023-02-25T03:44:51.396Z,61.81
2023-02-25T03:47:23.018Z,61.69
2023-02-25T03:50:19.528Z,61.37
2023-02-25T03:52:47.138Z,61.76
2023-02-25T03:55:17.565Z,61.42
2023-02-25T03:57:50.249Z,61.55
2023-02-25T04:00:23.791Z,61.68
2023-02-25T04:02:52.086Z,61.09
2023-02-25T04:05:22.908Z,60.69
2023-02-25T04:07:51.339Z,60.27
2023-02-25T04:10:18.537Z,60.21
2023-02-25T04:12:45.986Z,60.19
2023-02-25T04:15:14.507Z,59.60
2023-02-25T04:17:42.488Z,59.46
2023-02-25T04:20:10.842Z,59.72
2023-02-25T04:22:38.319Z,59.54
2023-02-25T04:25:06.162Z,58.97
2023-02-25T04:27:33.874Z,59.15
2023-02-25T04:30:01.042Z,59.02
2023-02-25T04:32:28.506Z,58.68
2023-02-25T04:34:55.652Z,58.76
2023-02-25T04:37:22.807Z,58.89
2023-02-25T04:39:49.740Z,58.73
2023-02-25T04:42:16.956Z,59.06
2023-02-25T04:44:43.839Z,59.30
2023-02-25T04:47:10.971Z,59.11
2023-02-25T04:49:44.855Z,59.04
2023-02-25T04:52:14.755Z,58.89
2023-02-25T04:54:42.470Z,59.15
2023-02-25T04:57:11.894Z,59.08
2023-02-25T04:59:39.652Z,58.75
2023-02-25T05:02:08.426Z,58.70
2023-02-25T05:04:39.619Z,58.36
2023-02-25T05:07:07.984Z,57.74
2023-02-25T05:09:35.356Z,57.67
2023-02-25T05:12:03.591Z,57.59
2023-02-25T05:14:32.851Z,57.64
2023-02-25T05:17:00.316Z,57.79
2023-02-25T05:19:27.281Z,57.27
2023-02-25T05:21:54.655Z,57.28
2023-02-25T05:24:23.731Z,57.04
2023-02-25T05:26:52.146Z,56.95
2023-02-25T05:29:19.473Z,56.79
2023-02-25T05:31:47.182Z,56.60
2023-02-25T05:34:14.570Z,56.43
2023-02-25T05:36:42.325Z,55.94
2023-02-25T05:39:13.986Z,56.01
2023-02-25T05:41:41.467Z,56.22
2023-02-25T05:44:10.785Z,56.03
2023-02-25T05:46:38.164Z,56.58
2023-02-25T05:49:05.235Z,56.58
2023-02-25T05:51:32.391Z,56.07
2023-02-25T05:54:00.426Z,56.38
2023-02-25T05:56:30.923Z,55.91
2023-02-25T05:58:59.202Z,55.99
2023-02-25T06:01:28.822Z,56.69
2023-02-25T06:03:58.602Z,56.58
2023-02-25T06:06:29.256Z,56.40
2023-02-25T06:08:56.645Z,56.82
2023-02-25T06:11:29.508Z,56.30
2023-02-25T06:13:58.643Z,56.29
2023-02-25T06:16:30.451Z,56.58
2023-02-25T06:18:59.668Z,56.11
2023-02-25T06:21:27.918Z,56.30
2023-02-25T06:23:54.918Z,56.50
2023-02-25T06:26:22.625Z,56.44
2023-02-25T06:28:49.700Z,56.15
2023-02-25T06:31:20.237Z,56.49
2023-02-25T06:33:47.561Z,56.13
2023-02-25T06:36:15.705Z,56.24
2023-02-25T06:38:44.107Z,56.50
2023-02-25T06:41:20.203Z,56.52
2023-02-25T06:43:52.446Z,56.14
2023-02-25T06:46:23.917Z,55.95
2023-02-25T06:48:51.204Z,56.32
2023-02-25T06:51:18.491Z,55.79
2023-02-25T06:53:47.237Z,55.75
2023-02-25T06:56:16.062Z,55.24
2023-02-25T06:58:43.530Z,55.56
2023-02-25T07:01:14.783Z,55.26
2023-02-25T07:03:45.943Z,55.41
2023-02-25T07:06:18.149Z,55.21
2023-02-25T07:08:45.996Z,55.00
2023-02-25T07:11:19.214Z,55.19
2023-02-25T07:13:50.392Z,54.80
2023-02-25T07:16:18.430Z,55.31
2023-02-25T07:18:45.867Z,55.28
2023-02-25T07:21:14.712Z,55.07
2023-02-25T07:23:43.471Z,54.85
2023-02-25T07:26:13.497Z,54.82
2023-02-25T07:28:41.477Z,54.62
2023-02-25T07:31:17.299Z,54.68
2023-02-25T07:33:45.979Z,54.21
2023-02-25T07:36:14.053Z,54.89
2023-02-25T07:38:41.153Z,54.64
2023-02-25T07:41:12.879Z,55.00
2023-02-25T07:43:40.936Z,54.57
2023-02-25T07:46:09.685Z,55.43
2023-02-25T07:48:37.019Z,55.47
2023-02-25T07:51:15.515Z,56.17
2023-02-25T07:53:42.604Z,57.08
2023-02-25T07:56:11.769Z,58.12
2023-02-25T07:58:39.575Z,57.80
2023-02-25T08:01:29.543Z,58.69
2023-02-25T08:04:01.273Z,58.70
2023-02-25T08:06:28.610Z,58.85
2023-02-25T08:08:55.694Z,58.86
2023-02-25T08:11:26.252Z,59.27
2023-02-25T08:13:54.117Z,59.29
2023-02-25T08:16:22.543Z,60.18
2023-02-25T08:18:49.921Z,60.66
2023-02-25T08:21:19.442Z,61.10
2023-02-25T08:23:46.442Z,61.67
2023-02-25T08:26:16.091Z,61.97
2023-02-25T08:28:44.308Z,62.48
2023-02-25T08:31:12.824Z,62.87
2023-02-25T08:33:44.751Z,62.93
2023-02-25T08:36:17.839Z,61.77
2023-02-25T08:38:44.783Z,61.56
2023-02-25T08:41:12.692Z,60.99
2023-02-25T08:43:41.067Z,61.00
2023-02-25T08:46:08.879Z,60.72
2023-02-25T08:48:37.152Z,60.50
2023-02-25T08:51:10.304Z,59.98
2023-02-25T08:53:40.597Z,60.38
2023-02-25T08:56:12.057Z,59.93
2023-02-25T08:58:40.158Z,59.66
2023-02-25T09:01:17.870Z,59.96
2023-02-25T09:03:54.238Z,59.44
2023-02-25T09:06:25.529Z,58.56
2023-02-25T09:08:55.009Z,58.00
2023-02-25T09:11:26.101Z,58.70
2023-02-25T09:13:54.284Z,57.56
2023-02-25T09:16:22.029Z,57.78
2023-02-25T09:18:51.420Z,57.33
2023-02-25T09:21:19.895Z,56.48
2023-02-25T09:23:47.604Z,56.61
2023-02-25T09:26:15.218Z,56.46
2023-02-25T09:28:42.462Z,56.32
2023-02-25T09:31:10.428Z,56.08
2023-02-25T09:33:41.944Z,55.72
2023-02-25T09:36:10.721Z,56.05
2023-02-25T09:38:40.644Z,56.31
2023-02-25T09:41:30.025Z,56.19
2023-02-25T09:44:08.441Z,55.21
2023-02-25T09:46:52.575Z,55.76
2023-02-25T09:49:34.770Z,56.89
2023-02-25T09:52:42.630Z,57.13
2023-02-25T09:55:37.358Z,57.75
2023-02-25T09:58:20.990Z,57.41
2023-02-25T10:01:26.991Z,57.91
2023-02-25T10:04:24.870Z,57.76
2023-02-25T10:06:56.017Z,57.69
2023-02-25T10:10:05.223Z,57.32
2023-02-25T10:12:39.916Z,57.67
2023-02-25T10:15:31.357Z,57.46
2023-02-25T10:18:18.574Z,56.62
2023-02-25T10:20:50.870Z,56.38
2023-02-25T10:23:41.798Z,55.65
2023-02-25T10:26:39.683Z,55.82
2023-02-25T10:29:25.185Z,55.26
2023-02-25T10:32:00.207Z,55.08
2023-02-25T10:34:29.658Z,54.79
2023-02-25T10:37:00.345Z,54.72
2023-02-25T10:39:29.285Z,54.87
2023-02-25T10:41:56.863Z,54.78
2023-02-25T10:44:24.269Z,54.39
2023-02-25T10:46:57.945Z,54.12
2023-02-25T10:49:28.693Z,53.68
2023-02-25T10:52:20.052Z,54.82
2023-02-25T10:54:52.612Z,56.05
2023-02-25T10:57:42.913Z,57.58
2023-02-25T11:00:32.902Z,59.20
2023-02-25T11:03:03.031Z,60.05
2023-02-25T11:05:48.197Z,61.28
2023-02-25T11:08:47.868Z,60.89
2023-02-25T11:11:29.192Z,60.64
2023-02-25T11:14:09.918Z,60.21
2023-02-25T11:16:40.495Z,60.89
2023-02-25T11:19:22.989Z,59.42
2023-02-25T11:21:52.081Z,59.99
2023-02-25T11:24:35.984Z,59.66
2023-02-25T11:27:06.989Z,58.90
2023-02-25T11:29:42.654Z,58.79
2023-02-25T11:32:16.751Z,58.21
2023-02-25T11:34:51.894Z,57.96
2023-02-25T11:37:45.509Z,58.03
2023-02-25T11:40:45.028Z,58.12
2023-02-25T11:43:20.773Z,57.39
2023-02-25T11:45:57.948Z,57.60
2023-02-25T11:48:47.692Z,57.40
2023-02-25T11:51:51.750Z,56.60
2023-02-25T11:54:21.634Z,53.53
2023-02-25T11:57:04.329Z,52.51
2023-02-25T11:59:52.989Z,52.33
2023-02-25T12:02:58.247Z,52.65
2023-02-25T12:06:05.740Z,52.05
2023-02-25T12:08:44.466Z,51.66
2023-02-25T12:11:38.671Z,51.87
2023-02-25T12:14:50.943Z,51.54
2023-02-25T12:17:32.409Z,51.74
2023-02-25T12:20:38.654Z,51.79
2023-02-25T12:23:38.976Z,51.05
2023-02-25T12:26:44.629Z,50.94
2023-02-25T12:30:04.815Z,51.29
2023-02-25T12:33:06.037Z,51.33
2023-02-25T12:35:49.684Z,52.20
2023-02-25T12:38:38.089Z,51.62
2023-02-25T12:41:54.787Z,51.35
2023-02-25T12:44:42.264Z,51.21
2023-02-25T12:47:34.344Z,50.82
2023-02-25T12:50:57.843Z,50.88
2023-02-25T12:54:04.343Z,50.69
2023-02-25T12:57:02.559Z,50.54
2023-02-25T13:00:25.937Z,50.82
2023-02-25T13:03:35.772Z,49.31
2023-02-25T13:06:39.444Z,50.85
2023-02-25T13:09:26.900Z,50.91
2023-02-25T13:12:44.992Z,51.32
2023-02-25T13:16:03.338Z,51.44
2023-02-25T13:18:50.776Z,50.63
2023-02-25T13:22:15.931Z,49.83
2023-02-25T13:24:57.615Z,50.22
2023-02-25T13:27:58.744Z,50.06
2023-02-25T13:30:53.639Z,49.58
2023-02-25T13:33:56.617Z,49.92
2023-02-25T13:36:38.739Z,49.59
2023-02-25T13:39:47.645Z,49.16
2023-02-25T13:43:07.099Z,49.05
2023-02-25T13:46:00.686Z,49.54
2023-02-25T13:49:12.807Z,49.43
2023-02-25T13:52:16.974Z,49.10
2023-02-25T13:55:31.331Z,48.44
2023-02-25T13:58:25.104Z,48.63
2023-02-25T14:01:49.272Z,48.52
2023-02-25T14:05:00.527Z,47.63
2023-02-25T14:08:05.901Z,48.00
2023-02-25T14:10:54.525Z,48.53
2023-02-25T14:13:41.197Z,49.17
2023-02-25T14:16:53.298Z,49.17
2023-02-25T14:20:02.704Z,49.28
2023-02-25T14:22:43.146Z,49.75
2023-02-25T14:25:33.555Z,49.22
2023-02-25T14:28:35.926Z,49.73
2023-02-25T14:31:32.068Z,49.83
2023-02-25T14:34:56.134Z,50.52
2023-02-25T14:37:52.337Z,50.12
2023-02-25T14:40:42.919Z,50.53
2023-02-25T14:43:36.584Z,49.94
2023-02-25T14:46:40.414Z,50.17
2023-02-25T14:49:20.633Z,49.97
2023-02-25T14:52:09.176Z,49.83
2023-02-25T14:55:34.967Z,49.55
2023-02-25T14:58:45.415Z,49.75
2023-02-25T15:01:49.061Z,49.28
2023-02-25T15:04:53.324Z,49.74
2023-02-25T15:08:01.851Z,49.57
2023-02-25T15:11:10.746Z,49.79
2023-02-25T15:13:56.225Z,49.59
2023-02-25T15:16:46.485Z,49.58
2023-02-25T15:19:17.463Z,49.95
2023-02-25T15:21:48.227Z,49.40
2023-02-25T15:24:27.339Z,49.48
2023-02-25T15:26:57.476Z,50.11
2023-02-25T15:29:33.550Z,50.13
2023-02-25T15:32:31.101Z,50.23
2023-02-25T15:35:08.034Z,50.04
2023-02-25T15:37:37.726Z,49.73
2023-02-25T15:40:16.739Z,49.94
2023-02-25T15:42:51.257Z,49.53
2023-02-25T15:45:27.770Z,50.05
2023-02-25T15:48:07.382Z,50.45
2023-02-25T15:50:43.700Z,50.78
2023-02-25T15:53:26.153Z,49.76
2023-02-25T15:56:14.109Z,49.77
2023-02-25T15:59:00.941Z,50.21
2023-02-25T16:01:42.708Z,50.23
2023-02-25T16:04:44.384Z,50.37
2023-02-25T16:07:20.286Z,50.67
2023-02-25T16:10:31.425Z,50.26
2023-02-25T16:13:01.077Z,50.47
2023-02-25T16:15:43.264Z,50.81
2023-02-25T16:18:35.250Z,51.41
2023-02-25T16:21:15.730Z,51.27
2023-02-25T16:23:44.593Z,51.45
2023-02-25T16:26:47.847Z,51.54
2023-02-25T16:29:33.682Z,51.49
2023-02-25T16:32:41.190Z,50.48
2023-02-25T16:35:57.578Z,50.46
2023-02-25T16:38:47.104Z,50.50
2023-02-25T16:41:15.917Z,50.23
2023-02-25T16:43:45.816Z,49.86
2023-02-25T16:46:21.888Z,49.67
2023-02-25T16:48:57.696Z,49.95
2023-02-25T16:51:40.080Z,49.93
2023-02-25T16:54:17.766Z,50.10
2023-02-25T16:56:48.413Z,50.15
2023-02-25T16:59:22.737Z,50.23
2023-02-25T17:02:22.217Z,50.33
2023-02-25T17:04:56.163Z,50.59
2023-02-25T17:07:31.600Z,50.46
2023-02-25T17:10:03.028Z,50.79
2023-02-25T17:12:41.374Z,50.58
2023-02-25T17:15:21.594Z,50.72
2023-02-25T17:18:01.018Z,50.90
2023-02-25T17:20:28.961Z,51.24
2023-02-25T17:22:59.787Z,50.94
2023-02-25T17:25:44.417Z,51.27
2023-02-25T17:28:30.918Z,51.62
2023-02-25T17:31:13.807Z,51.66
2023-02-25T17:34:04.178Z,52.08
2023-02-25T17:36:36.791Z,52.67
2023-02-25T17:39:13.670Z,52.86
2023-02-25T17:41:43.173Z,53.04
2023-02-25T17:44:42.667Z,52.97
2023-02-25T17:47:19.375Z,53.15
2023-02-25T17:49:47.806Z,53.92
2023-02-25T17:52:32.411Z,53.95
2023-02-25T17:55:05.238Z,53.51
2023-02-25T17:57:33.987Z,53.14
2023-02-25T18:00:20.668Z,52.98
2023-02-25T18:02:47.907Z,53.04
2023-02-25T18:05:18.491Z,53.48
2023-02-25T18:08:03.959Z,53.66
2023-02-25T18:10:34.069Z,53.64
2023-02-25T18:13:05.141Z,53.67
2023-02-25T18:15:34.718Z,53.93
2023-02-25T18:18:08.072Z,54.45
2023-02-25T18:20:42.347Z,54.84
2023-02-25T18:23:24.571Z,54.69
2023-02-25T18:26:20.790Z,55.05
2023-02-25T18:28:48.131Z,54.46
2023-02-25T18:31:17.000Z,55.22
2023-02-25T18:33:46.208Z,55.62
2023-02-25T18:36:23.530Z,56.60
2023-02-25T18:38:54.487Z,57.40
2023-02-25T18:41:21.748Z,58.33
2023-02-25T18:43:49.368Z,57.92
2023-02-25T18:46:16.785Z,58.37
2023-02-25T18:48:44.037Z,58.61
2023-02-25T18:51:14.316Z,58.63
2023-02-25T18:53:42.125Z,58.81
2023-02-25T18:56:17.602Z,59.28
2023-02-25T18:58:45.615Z,60.00
2023-02-25T19:01:25.786Z,60.87
2023-02-25T19:03:59.310Z,61.10
2023-02-25T19:06:28.454Z,61.24
2023-02-25T19:08:55.706Z,61.68
2023-02-25T19:11:33.478Z,62.29
2023-02-25T19:14:00.831Z,62.13
2023-02-25T19:16:28.130Z,62.41
2023-02-25T19:18:56.194Z,62.03
2023-02-25T19:21:23.386Z,62.12
2023-02-25T19:23:53.822Z,61.45
2023-02-25T19:26:21.325Z,61.16
2023-02-25T19:28:48.718Z,61.14
2023-02-25T19:31:15.835Z,61.22
2023-02-25T19:33:43.278Z,61.02
2023-02-25T19:36:12.110Z,61.56
2023-02-25T19:38:39.683Z,60.93
2023-02-25T19:41:07.202Z,61.15
2023-02-25T19:43:34.760Z,60.99
2023-02-25T19:46:02.756Z,61.41
2023-02-25T19:48:30.053Z,61.14
2023-02-25T19:50:57.069Z,61.92
2023-02-25T19:53:24.506Z,62.16
2023-02-25T19:55:56.571Z,62.40
2023-02-25T19:58:23.926Z,62.26
2023-02-25T20:00:50.981Z,62.56
2023-02-25T20:03:18.373Z,63.05
2023-02-25T20:05:45.311Z,63.36
2023-02-25T20:08:12.569Z,63.52
2023-02-25T20:10:43.250Z,63.77
2023-02-25T20:13:10.515Z,63.77
2023-02-25T20:15:37.700Z,63.88
2023-02-25T20:18:05.282Z,64.46
2023-02-25T20:20:32.208Z,64.80
2023-02-25T20:22:59.471Z,65.29
2023-02-25T20:25:26.480Z,65.44
2023-02-25T20:27:53.867Z,66.46
2023-02-25T20:30:22.571Z,66.35
2023-02-25T20:32:49.887Z,66.64
2023-02-25T20:35:21.405Z,66.88
2023-02-25T20:38:03.214Z,66.89
2023-02-25T20:40:30.294Z,67.51
2023-02-25T20:42:57.858Z,67.90
2023-02-25T20:45:27.702Z,67.71
2023-02-25T20:47:55.610Z,67.96
2023-02-25T20:50:27.923Z,68.06
2023-02-25T20:52:55.831Z,67.85
2023-02-25T20:55:23.099Z,68.34
2023-02-25T20:57:50.677Z,68.79
2023-02-25T21:00:20.623Z,68.96
2023-02-25T21:02:48.429Z,68.93
2023-02-25T21:05:15.830Z,69.24
2023-02-25T21:07:43.397Z,69.80
2023-02-25T21:10:11.546Z,69.29
2023-02-25T21:12:38.901Z,69.16
2023-02-25T21:15:06.685Z,69.56
2023-02-25T21:17:34.115Z,69.53
2023-02-25T21:20:01.213Z,68.97
2023-02-25T21:22:28.607Z,69.39
2023-02-25T21:24:57.582Z,69.27
2023-02-25T21:27:26.168Z,69.03
2023-02-25T21:29:53.401Z,68.85
2023-02-25T21:32:20.859Z,69.36
2023-02-25T21:34:48.176Z,69.55
2023-02-25T21:37:16.339Z,69.63
2023-02-25T21:39:43.405Z,70.01
2023-02-25T21:42:10.661Z,70.45
2023-02-25T21:44:37.680Z,70.55
2023-02-25T21:47:05.528Z,70.66
2023-02-25T21:49:32.680Z,70.45
2023-02-25T21:52:00.275Z,70.85
2023-02-25T21:54:27.610Z,70.99
2023-02-25T21:56:54.971Z,70.85
2023-02-25T21:59:23.441Z,70.63
2023-02-25T22:01:52.218Z,70.49
2023-02-25T22:04:19.462Z,70.52
2023-02-25T22:06:48.870Z,71.12
2023-02-25T22:09:18.089Z,70.95
2023-02-25T22:11:45.794Z,71.10
2023-02-25T22:14:12.997Z,70.97
2023-02-25T22:16:40.466Z,71.46
2023-02-25T22:19:07.459Z,71.26
2023-02-25T22:21:36.978Z,71.27
2023-02-25T22:24:05.861Z,71.40
2023-02-25T22:26:36.740Z,71.33
2023-02-25T22:29:08.445Z,71.67
2023-02-25T22:31:36.752Z,71.52
2023-02-25T22:34:04.559Z,72.00
2023-02-25T22:36:32.459Z,71.58
2023-02-25T22:38:59.635Z,71.47
2023-02-25T22:41:30.961Z,71.88
2023-02-25T22:43:58.803Z,71.83
2023-02-25T22:46:32.877Z,71.73
2023-02-25T22:49:00.209Z,71.62
2023-02-25T22:51:32.023Z,72.13
2023-02-25T22:53:59.650Z,72.01
2023-02-25T22:56:28.353Z,72.10
2023-02-25T22:58:55.729Z,71.96
2023-02-25T23:01:26.663Z,72.17
2023-02-25T23:03:56.037Z,72.02
2023-02-25T23:06:42.145Z,72.35
2023-02-25T23:09:14.683Z,72.59
2023-02-25T23:11:44.885Z,72.56
2023-02-25T23:14:12.931Z,72.67
2023-02-25T23:16:44.074Z,72.65
2023-02-25T23:19:16.184Z,72.64
2023-02-25T23:21:43.632Z,72.97
2023-02-25T23:24:19.674Z,72.35
2023-02-25T23:26:51.151Z,72.85
2023-02-25T23:29:18.738Z,72.90
2023-02-25T23:31:48.439Z,72.95
2023-02-25T23:34:23.313Z,72.76
2023-02-25T23:36:56.730Z,72.83
2023-02-25T23:39:24.094Z,72.86
2023-02-25T23:41:51.548Z,73.06
2023-02-25T23:44:19.124Z,72.93
2023-02-25T23:46:46.470Z,72.88
2023-02-25T23:49:16.544Z,72.83
2023-02-25T23:51:47.853Z,72.73
2023-02-25T23:54:19.412Z,73.17
2023-02-25T23:56:47.701Z,72.82
2023-02-25T23:59:16.163Z,72.79
